Time;durP1;ratioP1;P1;durP2;ratioP2;P2;SDS_P1;SDS_P2;PMS_P1;PMS_P2;Temp;Humidity;BMP_temperature;BMP_pressure;BME280_temperature;BME280_humidity;BME280_pressure;Samples;Min_cycle;Max_cycle;Signal;HPM_P1;HPM_P2
2022/09/20 00:08:49;;;;;;;0.60;0.50;;;;;;;;;;20996992;22;20225;-72
2022/09/20 00:18:51;;;;;;;2.50;0.53;;;;;;;;;;20965680;28;20259;-72
2022/09/20 00:28:54;;;;;;;1.27;0.53;;;;;;;;;;20952404;28;20676;-72
2022/09/20 00:38:56;;;;;;;1.67;0.50;;;;;;;;;;20882885;28;20244;-72
2022/09/20 00:49:23;;;;;;;1.13;0.80;;;13.00;99.90;;;;;;20884198;28;20276;-72
2022/09/20 00:59:31;;;;;;;1.70;0.70;;;;;;;;;;20900023;28;20218;-72
2022/09/20 01:09:33;;;;;;;1.47;0.50;;;;;;;;;;20883822;28;20226;-71
2022/09/20 01:20:00;;;;;;;0.80;0.47;;;;;;;;;;20885090;28;20716;-71
2022/09/20 01:30:08;;;;;;;2.00;0.50;;;13.00;99.90;;;;;;20883241;28;20632;-71
2022/09/20 01:40:10;;;;;;;1.00;0.50;;;;;;;;;;20850105;28;20968;-71
2022/09/20 01:50:36;;;;;;;0.97;0.70;;;13.20;99.90;;;;;;20881291;28;21113;-71
2022/09/20 02:00:50;;;;;;;1.27;0.50;;;;;;;;;;20896586;28;20260;-71
2022/09/20 02:11:04;;;;;;;0.87;0.43;;;13.10;99.90;;;;;;20896356;28;20320;-71
2022/09/20 02:21:22;;;;;;;0.97;0.43;;;13.20;99.90;;;;;;20879198;28;20259;-71
2022/09/20 02:31:36;;;;;;;2.33;0.80;;;;;;;;;;20911389;28;20622;-71
2022/09/20 02:42:02;;;;;;;1.73;0.60;;;13.00;99.90;;;;;;20877266;28;20270;-71
2022/09/20 02:52:07;;;;;;;1.07;0.77;;;;;;;;;;20876364;28;20247;-71
2022/09/20 03:02:15;;;;;;;2.00;0.57;;;;;;;;;;20889231;28;20279;-71
2022/09/20 03:12:17;;;;;;;1.57;0.60;;;;;;;;;;20873760;28;20676;-71
2022/09/20 03:22:45;;;;;;;0.97;0.50;;;12.80;99.90;;;;;;20905478;28;20247;-71
2022/09/20 03:32:47;;;;;;;2.00;0.60;;;;;;;;;;20918386;28;20221;-71
2022/09/20 03:42:51;;;;;;;0.60;0.50;;;;;;;;;;20858054;28;20244;-71
2022/09/20 03:53:12;;;;;;;2.23;0.80;;;;;;;;;;20885851;28;20271;-71
2022/09/20 04:03:51;;;;;;;1.50;0.70;;;12.50;99.90;;;;;;20885421;28;20194;-71
2022/09/20 04:14:06;;;;;;;1.33;0.50;;;;;;;;;;20870493;28;20728;-70
2022/09/20 04:24:21;;;;;;;1.80;0.90;;;;;;;;;;20870569;28;20272;-70
2022/09/20 04:36:27;;;;;;;1.00;0.70;;;;;;;;;;20870022;28;20221;-70
2022/09/20 04:44:56;;;;;;;3.87;0.63;;;;;;;;;;20899621;28;20214;-70
2022/09/20 04:55:11;;;;;;;1.40;0.50;;;;;;;;;;20871301;28;20224;-70
2022/09/20 05:05:25;;;;;;;0.50;0.40;;;;;;;;;;20883376;28;20213;-70
2022/09/20 05:15:35;;;;;;;1.47;1.00;;;;;;;;;;20914749;28;20286;-69
2022/09/20 05:25:55;;;;;;;1.50;0.80;;;;;;;;;;20903969;28;20241;-70
2022/09/20 05:35:57;;;;;;;2.33;1.13;;;;;;;;;;20950956;28;20217;-70
2022/09/20 05:46:13;;;;;;;6.80;2.80;;;;;;;;;;20980672;28;20209;-70
2022/09/20 05:56:30;;;;;;;9.30;4.47;;;;;;;;;;20941044;28;20684;-70
2022/09/20 06:06:59;;;;;;;6.57;3.57;;;12.50;99.90;;;;;;20944999;28;20753;-70
2022/09/20 06:17:06;;;;;;;3.13;1.30;;;;;;;;;;20923937;28;20233;-70
2022/09/20 06:27:14;;;;;;;2.03;1.10;;;12.50;99.90;;;;;;20892451;28;20275;-70
2022/09/20 06:47:52;;;;;;;2.33;1.17;;;;;;;;;;20909389;28;20214;-70
2022/09/20 06:57:55;;;;;;;3.30;1.80;;;;;;;;;;20908680;28;20222;-70
2022/09/20 07:08:00;;;;;;;1.30;0.90;;;12.50;99.90;;;;;;20890669;28;20217;-70
2022/09/20 07:18:02;;;;;;;2.90;1.20;;;;;;;;;;20889618;28;20202;-70
2022/09/20 07:28:04;;;;;;;1.60;0.67;;;;;;;;;;20874737;28;20589;-70
2022/09/20 07:38:07;;;;;;;5.13;1.30;;;;;;;;;;20858366;28;20222;-70
2022/09/20 07:48:09;;;;;;;1.43;0.80;;;;;;;;;;20887802;28;20225;-69
2022/09/20 07:58:11;;;;;;;1.63;0.73;;;;;;;;;;20914363;28;20213;-69
2022/09/20 08:08:13;;;;;;;1.50;0.80;;;;;;;;;;20905479;28;20559;-69
2022/09/20 08:18:16;;;;;;;1.13;0.70;;;;;;;;;;20902009;28;20311;-69
2022/09/20 08:28:18;;;;;;;1.83;0.70;;;;;;;;;;20928804;28;20255;-69
2022/09/20 08:38:25;;;;;;;4.93;0.70;;;;;;;;;;20927835;28;20282;-69
2022/09/20 08:48:32;;;;;;;2.60;1.30;;;;;;;;;;20984048;28;20252;-69
2022/09/20 08:58:34;;;;;;;2.23;1.00;;;;;;;;;;20953102;28;20213;-69
2022/09/20 09:08:36;;;;;;;1.27;0.60;;;;;;;;;;20898058;28;20217;-70
2022/09/20 09:18:40;;;;;;;1.23;0.50;;;;;;;;;;20865405;28;20213;-69
2022/09/20 09:28:42;;;;;;;1.13;0.90;;;;;;;;;;20881917;28;20248;-70
2022/09/20 09:38:46;;;;;;;2.20;0.80;;;;;;;;;;20863090;28;20287;-69
2022/09/20 09:49:03;;;;;;;1.03;0.53;;;;;;;;;;20876100;28;20218;-70
2022/09/20 09:59:23;;;;;;;3.27;0.80;;;;;;;;;;20889271;28;20266;-71
2022/09/20 10:09:29;;;;;;;2.63;0.70;;;;;;;;;;20880756;28;20221;-70
2022/09/20 10:20:10;;;;;;;1.93;0.70;;;;;;;;;;20914267;28;20295;-70
2022/09/20 10:30:14;;;;;;;3.70;0.73;;;;;;;;;;20861739;28;20229;-71
2022/09/20 10:51:24;;;;;;;3.77;0.90;;;15.00;99.90;;;;;;20891619;28;20225;-70
2022/09/20 11:02:02;;;;;;;1.30;0.70;;;15.60;99.90;;;;;;20914223;28;20749;-71
2022/09/20 11:12:20;;;;;;;2.23;0.67;;;;;;;;;;20992201;28;20274;-70
2022/09/20 11:22:27;;;;;;;2.03;0.63;;;;;;;;;;20989188;28;20266;-70
2022/09/20 11:32:37;;;;;;;3.10;0.63;;;14.80;99.90;;;;;;20964773;28;20225;-69
2022/09/20 11:42:40;;;;;;;1.87;0.67;;;;;;;;;;20862090;28;20271;-69
2022/09/20 11:52:45;;;;;;;0.47;0.40;;;;;;;;;;20869228;28;20279;-71
2022/09/20 12:02:49;;;;;;;2.23;0.90;;;;;;;;;;20863541;28;20217;-71
2022/09/20 12:12:56;;;;;;;1.80;0.40;;;;;;;;;;20882212;28;20218;-71
2022/09/20 12:23:17;;;;;;;1.00;0.40;;;;;;;;;;20911428;28;20205;-71
2022/09/20 12:33:20;;;;;;;2.43;0.60;;;;;;;;;;20966188;28;20891;-71
2022/09/20 12:43:23;;;;;;;1.07;0.50;;;;;;;;;;20963063;28;20267;-71
2022/09/20 12:53:25;;;;;;;1.47;0.60;;;;;;;;;;20908278;28;20628;-70
2022/09/20 13:03:35;;;;;;;0.80;0.50;;;;;;;;;;20877927;28;20665;-71
2022/09/20 13:13:43;;;;;;;2.27;0.70;;;;;;;;;;20863055;28;20221;-70
2022/09/20 13:23:48;;;;;;;1.90;0.93;;;;;;;;;;20878879;28;20288;-69
2022/09/20 13:33:49;;;;;;;1.10;0.60;;;16.50;99.90;;;;;;20878309;28;20705;-69
2022/09/20 13:43:52;;;;;;;0.90;0.50;;;;;;;;;;20877285;28;20258;-71
2022/09/20 13:54:18;;;;;;;0.97;0.60;;;17.50;99.90;;;;;;20892725;28;20234;-70
2022/09/20 14:04:21;;;;;;;1.17;0.60;;;;;;;;;;20892574;28;20339;-70
2022/09/20 14:14:23;;;;;;;1.80;0.77;;;;;;;;;;20875915;28;20589;-71
2022/09/20 14:24:34;;;;;;;3.17;0.70;;;;;;;;;;20875559;28;20213;-71
2022/09/20 14:34:37;;;;;;;1.80;0.90;;;;;;;;;;20919959;28;20263;-71
2022/09/20 14:44:39;;;;;;;1.90;0.50;;;;;;;;;;20912885;28;20283;-71
2022/09/20 14:54:41;;;;;;;1.47;0.80;;;;;;;;;;20918970;22;20238;-76
2022/09/20 15:04:53;;;;;;;2.20;0.60;;;;;;;;;;20897687;28;20217;-76
2022/09/20 15:14:54;;;;;;;1.43;0.57;;;;;;;;;;20905881;28;20213;-76
2022/09/20 15:24:56;;;;;;;1.60;0.50;;;;;;;;;;20890221;28;20689;-76
2022/09/20 15:34:58;;;;;;;0.47;0.37;;;;;;;;;;20906380;28;20243;-77
2022/09/20 15:44:59;;;;;;;1.30;0.60;;;;;;;;;;20888304;28;20244;-78
2022/09/20 15:55:02;;;;;;;1.10;0.50;;;;;;;;;;20907084;28;20554;-77
2022/09/20 16:05:04;;;;;;;1.97;0.60;;;;;;;;;;20899144;28;20240;-77
2022/09/20 16:15:07;;;;;;;1.27;0.60;;;;;;;;;;20853493;28;20642;-78
2022/09/20 16:25:09;;;;;;;0.60;0.50;;;;;;;;;;20873871;28;20303;-78
2022/09/20 16:35:10;;;;;;;5.30;0.70;;;;;;;;;;20867786;28;20271;-78
2022/09/20 16:45:14;;;;;;;0.70;0.57;;;;;;;;;;20878365;28;20222;-76
2022/09/20 16:55:18;;;;;;;1.97;0.50;;;;;;;;;;20864254;28;20229;-76
2022/09/20 17:05:20;;;;;;;5.07;1.60;;;;;;;;;;20868359;28;20221;-76
2022/09/20 17:15:22;;;;;;;1.87;1.60;;;;;;;;;;20874221;28;20259;-76
2022/09/20 17:25:25;;;;;;;3.67;1.70;;;;;;;;;;20865827;28;20205;-76
2022/09/20 17:35:28;;;;;;;1.97;0.60;;;;;;;;;;20863009;28;20295;-76
2022/09/20 17:45:29;;;;;;;1.37;0.40;;;;;;;;;;20858604;28;20630;-76
2022/09/20 17:55:33;;;;;;;0.63;0.47;;;;;;;;;;20866805;28;20253;-78
2022/09/20 18:05:34;;;;;;;2.10;0.73;;;;;;;;;;20862379;28;20692;-77
2022/09/20 18:15:36;;;;;;;4.63;2.90;;;;;;;;;;20904915;28;20663;-76
2022/09/20 18:36:02;;;;;;;2.13;0.60;;;;;;;;;;20903428;28;20221;-76
2022/09/20 18:46:05;;;;;;;1.33;0.70;;;;;;;;;;20883650;28;20582;-77
2022/09/20 18:56:07;;;;;;;1.10;0.70;;;;;;;;;;20859214;28;20267;-77
2022/09/20 19:06:10;;;;;;;1.03;0.70;;;;;;;;;;20898621;28;20210;-77
2022/09/20 19:16:18;;;;;;;2.60;0.80;;;;;;;;;;20868834;28;20681;-76
2022/09/20 19:26:21;;;;;;;1.53;0.80;;;;;;;;;;20867404;28;20222;-77
2022/09/20 19:36:38;;;;;;;0.90;0.70;;;;;;;;;;20879868;28;20260;-77
2022/09/20 19:46:59;;;;;;;0.87;0.50;;;14.90;99.90;;;;;;20844757;28;20229;-77
2022/09/20 19:57:06;;;;;;;1.00;0.80;;;14.70;99.90;;;;;;20822376;28;20218;-78
2022/09/20 20:07:23;;;;;;;1.90;0.90;;;14.80;99.90;;;;;;20853240;28;20685;-76
2022/09/20 20:17:28;;;;;;;1.70;1.03;;;;;;;;;;20860148;28;20229;-76
2022/09/20 20:27:31;;;;;;;1.23;0.80;;;;;;;;;;20873633;28;20633;-76
2022/09/20 20:37:33;;;;;;;2.10;0.80;;;14.60;99.90;;;;;;20882569;28;20271;-75
2022/09/20 20:47:35;;;;;;;1.23;0.70;;;;;;;;;;20883125;28;20244;-76
2022/09/20 20:57:37;;;;;;;1.93;1.00;;;;;;;;;;20875972;28;20237;-77
2022/09/20 21:07:40;;;;;;;5.37;2.27;;;;;;;;;;20873950;28;20705;-77
2022/09/20 21:17:42;;;;;;;3.23;2.00;;;;;;;;;;20877065;28;20233;-76
2022/09/20 21:27:44;;;;;;;13.00;7.27;;;;;;;;;;20860733;28;20218;-76
2022/09/20 21:37:46;;;;;;;5.30;2.43;;;;;;;;;;20866050;28;20226;-77
2022/09/20 21:47:48;;;;;;;2.83;0.80;;;14.00;99.90;;;;;;20892177;28;20271;-76
2022/09/20 21:57:50;;;;;;;4.97;1.73;;;;;;;;;;20891094;28;20271;-77
2022/09/20 22:07:55;;;;;;;1.37;0.87;;;13.80;99.90;;;;;;20900440;28;20206;-77
2022/09/20 22:17:56;;;;;;;2.23;1.40;;;;;;;;;;20918667;28;20210;-77
2022/09/20 22:27:58;;;;;;;1.47;1.00;;;;;;;;;;20915336;28;20565;-77
2022/09/20 22:38:00;;;;;;;1.80;1.00;;;;;;;;;;20850206;28;20222;-78
2022/09/20 22:48:03;;;;;;;0.90;0.60;;;;;;;;;;20915272;28;20617;-77
2022/09/20 22:58:04;;;;;;;0.73;0.50;;;;;;;;;;20879217;28;20272;-77
2022/09/20 23:08:06;;;;;;;0.70;0.40;;;;;;;;;;20894859;28;20198;-76
2022/09/20 23:18:08;;;;;;;1.10;0.60;;;;;;;;;;20877215;28;20267;-77
2022/09/20 23:28:09;;;;;;;1.10;0.50;;;;;;;;;;20877212;28;20209;-77
2022/09/20 23:38:13;;;;;;;0.73;0.47;;;;;;;;;;20913807;28;20230;-75
2022/09/20 23:48:14;;;;;;;1.67;1.00;;;;;;;;;;20893153;28;20248;-75
2022/09/20 23:58:16;;;;;;;0.50;0.50;;;13.10;99.90;;;;;;20900151;28;20275;-75
